Time;durP1;ratioP1;P1;durP2;ratioP2;P2;SDS_P1;SDS_P2;PMS_P1;PMS_P2;Temp;Humidity;BMP_temperature;BMP_pressure;BME280_temperature;BME280_humidity;BME280_pressure;Samples;Min_cycle;Max_cycle;Signal;HPM_P1;HPM_P2
2022/10/22 00:00:26;;;;;;;13.78;7.83;;;;;;;3.31;80.00;101016.19;1772194;79;21161;-61
2022/10/22 00:02:56;;;;;;;13.72;7.20;;;;;;;3.34;79.89;101026.75;1768642;80;21656;-61
2022/10/22 00:05:25;;;;;;;14.87;8.35;;;;;;;3.34;79.77;101026.25;1767652;80;21130;-62
2022/10/22 00:07:54;;;;;;;12.58;7.75;;;;;;;3.36;79.69;101025.62;1770155;80;21091;-60
2022/10/22 00:10:25;;;;;;;14.63;7.20;;;;;;;3.39;79.59;101023.13;1772996;80;21614;-60
2022/10/22 00:12:55;;;;;;;12.85;8.15;;;;;;;3.40;79.56;101016.72;1767816;80;21092;-60
2022/10/22 00:15:26;;;;;;;16.40;8.18;;;;;;;3.41;79.43;101000.33;1773318;81;21087;-61
2022/10/22 00:17:57;;;;;;;12.33;7.65;;;;;;;3.41;79.33;101004.89;1702849;83;21609;-60
2022/10/22 00:20:28;;;;;;;11.65;7.05;;;;;;;3.37;79.12;101012.44;1705016;83;21174;-60
2022/10/22 00:22:57;;;;;;;16.37;7.60;;;;;;;3.38;79.19;101010.09;1708702;83;21650;-60
2022/10/22 00:25:27;;;;;;;14.85;7.62;;;;;;;3.40;79.23;101004.03;1704480;83;21138;-59
2022/10/22 00:27:56;;;;;;;11.65;7.40;;;;;;;3.40;79.16;100995.05;1706651;83;21190;-60
2022/10/22 00:30:25;;;;;;;15.75;7.58;;;;;;;3.41;79.22;100985.94;1701540;83;21131;-61
2022/10/22 00:32:55;;;;;;;15.88;8.23;;;;;;;3.42;79.23;100982.23;1710675;83;21167;-59
2022/10/22 00:35:26;;;;;;;13.95;8.23;;;;;;;3.38;79.12;100974.88;1716864;80;21582;-59
2022/10/22 00:37:55;;;;;;;16.50;7.97;;;;;;;3.38;79.25;100979.44;1772393;79;21139;-60
2022/10/22 00:40:24;;;;;;;14.30;8.08;;;;;;;3.39;79.28;100982.50;1771224;80;21128;-60
2022/10/22 00:42:53;;;;;;;14.63;7.80;;;;;;;3.41;79.32;100989.50;1770174;80;21159;-60
2022/10/22 00:45:25;;;;;;;14.35;8.35;;;;;;;3.44;79.37;100984.30;1772828;80;21083;-59
2022/10/22 00:48:01;;;;;;;13.20;7.75;;;;;;;3.47;79.38;100979.47;1773029;79;21080;-59
2022/10/22 00:50:45;;;;;;;10.90;6.43;;;;;;;3.51;79.38;100981.41;1771415;80;21084;-61
2022/10/22 00:53:22;;;;;;;13.22;7.60;;;;;;;3.48;79.20;100981.18;1762151;80;21288;-60
2022/10/22 00:55:52;;;;;;;16.50;8.08;;;;;;;3.45;79.22;100981.95;1772351;80;21092;-60
2022/10/22 00:58:25;;;;;;;16.32;9.58;;;;;;;3.45;79.40;100971.97;1771162;80;21108;-60
2022/10/22 01:00:55;;;;;;;21.80;10.65;;;;;;;3.49;79.47;100963.93;1770665;80;21080;-59
2022/10/22 01:03:25;;;;;;;19.05;9.05;;;;;;;3.52;79.40;100955.16;1772954;80;21116;-59
2022/10/22 01:05:58;;;;;;;18.40;8.70;;;;;;;3.52;79.27;100948.39;1773213;80;21599;-60
2022/10/22 01:08:47;;;;;;;17.45;8.95;;;;;;;3.49;79.27;100949.53;1772376;79;21124;-59
2022/10/22 01:11:41;;;;;;;16.77;8.73;;;;;;;3.49;79.29;100944.11;1772671;79;21099;-60
2022/10/22 01:14:34;;;;;;;14.58;8.08;;;;;;;3.48;79.25;100931.06;1785815;79;21108;-59
2022/10/22 01:17:09;;;;;;;16.25;8.10;;;;;;;3.45;79.20;100919.15;1730690;83;21208;-59
2022/10/22 01:20:14;;;;;;;17.07;8.35;;;;;;;3.45;79.28;100919.15;1788551;79;21120;-59
2022/10/22 01:23:24;;;;;;;16.77;7.67;;;;;;;3.43;79.21;100933.33;1770895;80;21186;-61
2022/10/22 01:26:25;;;;;;;16.73;8.08;;;;;;;3.47;79.15;100921.72;1772686;80;21131;-60
2022/10/22 01:29:15;;;;;;;16.77;8.20;;;;;;;3.54;79.03;100924.73;1771430;80;21101;-60
2022/10/22 01:32:05;;;;;;;21.42;8.38;;;;;;;3.56;78.81;100907.83;1773197;80;21159;-60
2022/10/22 01:34:35;;;;;;;18.65;8.25;;;;;;;3.58;78.62;100919.39;1774359;80;21155;-59
2022/10/22 01:37:05;;;;;;;14.78;7.97;;;;;;;3.58;78.33;100921.59;1765950;80;21549;-59
2022/10/22 01:39:34;;;;;;;15.00;8.10;;;;;;;3.60;78.25;100921.45;1773246;80;21704;-59
2022/10/22 01:42:03;;;;;;;17.15;8.90;;;;;;;3.65;78.15;100917.83;1772415;80;21124;-59
2022/10/22 01:44:35;;;;;;;18.00;8.45;;;;;;;3.67;78.02;100918.55;1771517;80;21231;-60
2022/10/22 01:47:25;;;;;;;14.13;8.25;;;;;;;3.65;77.91;100919.19;1772132;80;21555;-59
2022/10/22 01:50:08;;;;;;;17.07;8.25;;;;;;;3.65;77.83;100914.63;1772447;79;21566;-61
2022/10/22 01:53:10;;;;;;;14.93;8.08;;;;;;;3.65;77.72;100911.05;1755839;79;21115;-59
2022/10/22 01:56:05;;;;;;;12.88;8.33;;;;;;;3.65;77.71;100913.27;1773902;80;21166;-59
2022/10/22 01:59:00;;;;;;;18.17;10.88;;;;;;;3.64;77.73;100916.12;1772688;81;21179;-60
2022/10/22 02:02:06;;;;;;;15.98;9.58;;;;;;;3.63;77.84;100908.98;1770087;80;21194;-60
2022/10/22 02:04:46;;;;;;;16.25;9.70;;;;;;;3.62;77.94;100912.20;1720274;80;21214;-60
2022/10/22 02:07:19;;;;;;;17.05;9.23;;;;;;;3.63;78.00;100902.20;1774193;80;21154;-60
2022/10/22 02:09:50;;;;;;;15.72;9.18;;;;;;;3.61;78.06;100902.34;1773860;81;21119;-59
2022/10/22 02:12:21;;;;;;;18.98;10.53;;;;;;;3.62;78.12;100899.14;1772447;80;21178;-59
2022/10/22 02:14:50;;;;;;;21.07;9.33;;;;;;;3.63;78.22;100894.08;1773351;80;21537;-59
2022/10/22 02:17:21;;;;;;;19.57;10.48;;;;;;;3.65;78.32;100900.22;1771367;80;21187;-60
2022/10/22 02:20:02;;;;;;;20.43;10.50;;;;;;;3.66;78.37;100896.51;1686258;85;21175;-58
2022/10/22 02:22:32;;;;;;;21.30;11.35;;;;;;;3.65;78.43;100900.22;1684534;85;21244;-60
2022/10/22 02:25:02;;;;;;;18.95;11.00;;;;;;;3.65;78.57;100900.22;1682579;85;21151;-60
2022/10/22 02:27:47;;;;;;;22.50;10.75;;;;;;;3.66;78.69;100891.95;1683647;84;21122;-60
2022/10/22 02:30:19;;;;;;;19.73;10.68;;;;;;;3.67;78.82;100888.23;1685203;85;21190;-60
2022/10/22 02:33:20;;;;;;;21.50;11.00;;;;;;;3.67;78.94;100877.90;1683751;84;21217;-60
2022/10/22 02:35:50;;;;;;;18.30;10.10;;;;;;;3.66;79.15;100870.77;1679656;85;21175;-59
2022/10/22 02:38:23;;;;;;;18.65;10.15;;;;;;;3.62;79.31;100855.79;1716505;81;21614;-59
2022/10/22 02:40:53;;;;;;;18.12;10.08;;;;;;;3.60;79.43;100857.78;1732173;81;21239;-59
2022/10/22 02:43:24;;;;;;;18.92;9.70;;;;;;;3.55;79.51;100851.94;1764744;80;21146;-59
2022/10/22 02:45:53;;;;;;;15.70;9.10;;;;;;;3.48;79.64;100863.34;1771159;80;21091;-59
2022/10/22 02:48:23;;;;;;;20.45;10.10;;;;;;;3.44;79.88;100853.78;1772146;80;21507;-59
2022/10/22 02:50:52;;;;;;;18.02;9.68;;;;;;;3.41;80.08;100849.14;1771803;80;21174;-60
2022/10/22 02:53:21;;;;;;;16.60;9.23;;;;;;;3.41;80.27;100857.27;1772076;79;21545;-60
2022/10/22 02:55:53;;;;;;;17.35;8.53;;;;;;;3.41;80.37;100847.79;1773288;80;21179;-61
2022/10/22 02:58:22;;;;;;;14.18;8.38;;;;;;;3.42;80.47;100844.94;1761661;80;21155;-60
2022/10/22 03:00:51;;;;;;;18.55;8.85;;;;;;;3.43;80.43;100838.52;1773639;79;21531;-59
2022/10/22 03:03:23;;;;;;;17.77;8.68;;;;;;;3.38;80.52;100837.23;1774110;79;21111;-59
2022/10/22 03:05:54;;;;;;;18.05;8.60;;;;;;;3.38;80.75;100842.16;1772332;80;21112;-59
2022/10/22 03:08:25;;;;;;;15.55;8.20;;;;;;;3.41;80.80;100834.25;1774215;79;21481;-61
2022/10/22 03:10:54;;;;;;;17.67;8.15;;;;;;;3.42;80.84;100831.39;1772394;80;21183;-59
2022/10/22 03:13:24;;;;;;;14.03;7.62;;;;;;;3.45;80.83;100832.47;1777942;80;21096;-60
2022/10/22 03:15:55;;;;;;;15.32;7.80;;;;;;;3.44;80.82;100829.91;1774576;80;21112;-61
2022/10/22 03:18:25;;;;;;;16.48;7.92;;;;;;;3.42;80.96;100835.46;1762202;80;21123;-60
2022/10/22 03:21:04;;;;;;;15.45;7.97;;;;;;;3.44;81.10;100836.17;1775744;80;21613;-59
2022/10/22 03:23:35;;;;;;;12.60;8.05;;;;;;;3.46;81.21;100837.39;1771729;80;21111;-60
2022/10/22 03:26:04;;;;;;;16.05;7.55;;;;;;;3.45;81.29;100824.34;1771173;80;21147;-59
2022/10/22 03:28:35;;;;;;;16.95;7.83;;;;;;;3.44;81.36;100817.21;1773554;80;21571;-59
2022/10/22 03:31:05;;;;;;;15.95;7.17;;;;;;;3.48;81.44;100799.67;1771269;80;21107;-59
2022/10/22 03:33:35;;;;;;;11.97;7.28;;;;;;;3.49;81.51;100791.91;1773318;80;21115;-61
2022/10/22 03:36:06;;;;;;;14.03;7.50;;;;;;;3.50;81.62;100808.52;1771160;80;21596;-59
2022/10/22 03:38:37;;;;;;;12.73;7.47;;;;;;;3.57;81.71;100814.22;1760770;80;21092;-61
2022/10/22 03:41:06;;;;;;;14.78;8.33;;;;;;;3.64;81.66;100821.28;1774532;79;21085;-60
2022/10/22 03:43:37;;;;;;;14.75;7.85;;;;;;;3.69;81.45;100810.86;1771865;80;21151;-60
2022/10/22 03:46:06;;;;;;;12.73;7.83;;;;;;;3.72;81.28;100814.64;1774021;80;21127;-61
2022/10/22 03:48:35;;;;;;;16.62;7.90;;;;;;;3.74;81.12;100806.72;1772296;79;21623;-59
2022/10/22 03:51:06;;;;;;;15.35;7.62;;;;;;;3.76;80.99;100801.16;1746187;80;21174;-59
2022/10/22 03:53:35;;;;;;;14.68;7.70;;;;;;;3.76;80.88;100809.30;1763802;80;21150;-60
2022/10/22 03:56:09;;;;;;;19.75;8.03;;;;;;;3.76;80.86;100808.80;1765232;80;21103;-59
2022/10/22 03:58:39;;;;;;;14.38;7.33;;;;;;;3.78;80.78;100797.81;1764583;80;21115;-61
2022/10/22 04:01:11;;;;;;;15.50;7.35;;;;;;;3.83;80.75;100795.52;1743248;81;21175;-59
2022/10/22 04:03:41;;;;;;;15.40;7.45;;;;;;;3.85;80.61;100785.39;1773138;81;21162;-58
2022/10/22 04:06:11;;;;;;;12.80;7.33;;;;;;;3.85;80.56;100797.59;1771146;80;21578;-59
2022/10/22 04:08:41;;;;;;;14.80;7.62;;;;;;;3.83;80.58;100800.94;1769133;80;21146;-59
2022/10/22 04:11:12;;;;;;;14.83;8.18;;;;;;;3.84;80.62;100786.39;1780637;80;21111;-60
2022/10/22 04:13:42;;;;;;;17.20;8.23;;;;;;;3.83;80.65;100777.90;1764475;79;21525;-61
2022/10/22 04:16:20;;;;;;;17.98;8.38;;;;;;;3.86;80.73;100785.74;1717136;82;21159;-59
2022/10/22 04:18:51;;;;;;;16.15;8.20;;;;;;;3.85;80.77;100771.83;1718913;82;21227;-59
2022/10/22 04:21:21;;;;;;;13.62;7.65;;;;;;;3.87;80.84;100775.75;1739292;82;21586;-60
2022/10/22 04:24:12;;;;;;;16.02;8.13;;;;;;;3.86;80.95;100764.05;1728547;82;21213;-61
2022/10/22 04:26:41;;;;;;;15.90;7.92;;;;;;;3.88;81.10;100762.55;1624132;87;21215;-60
2022/10/22 04:29:11;;;;;;;14.75;7.97;;;;;;;3.93;81.20;100764.36;1591242;89;21646;-59
2022/10/22 04:31:43;;;;;;;13.98;7.80;;;;;;;3.96;81.19;100773.06;1587811;89;21699;-60
2022/10/22 04:34:14;;;;;;;14.28;7.50;;;;;;;3.99;81.09;100776.83;1599233;89;21158;-61
2022/10/22 04:36:44;;;;;;;15.60;7.83;;;;;;;4.03;81.01;100777.39;1653580;85;21189;-61
2022/10/22 04:39:14;;;;;;;14.95;8.08;;;;;;;4.06;81.00;100783.38;1651828;86;21579;-61
2022/10/22 04:41:43;;;;;;;17.80;8.65;;;;;;;4.10;80.89;100778.52;1653490;85;21607;-60
2022/10/22 04:44:15;;;;;;;17.50;8.00;;;;;;;4.12;80.75;100780.08;1653534;85;21205;-61
2022/10/22 04:46:46;;;;;;;15.00;8.25;;;;;;;4.11;80.62;100782.44;1656080;85;21139;-60
2022/10/22 04:49:16;;;;;;;13.60;7.55;;;;;;;4.14;80.45;100786.21;1651530;86;21219;-61
2022/10/22 04:51:46;;;;;;;15.75;8.08;;;;;;;4.16;80.28;100783.35;1654684;85;21183;-60
2022/10/22 04:54:15;;;;;;;20.32;7.62;;;;;;;4.20;80.09;100782.55;1664438;85;21629;-60
2022/10/22 04:56:45;;;;;;;17.75;8.18;;;;;;;4.25;79.97;100787.03;1678011;85;21618;-61
2022/10/22 04:59:15;;;;;;;17.77;8.15;;;;;;;4.25;79.82;100789.75;1660533;84;21162;-61
2022/10/22 05:01:45;;;;;;;15.48;8.08;;;;;;;4.26;79.81;100784.67;1674166;85;21164;-61
2022/10/22 05:04:16;;;;;;;18.25;8.60;;;;;;;4.29;79.70;100778.45;1668112;85;21215;-61
2022/10/22 05:06:45;;;;;;;17.27;7.75;;;;;;;4.30;79.51;100769.31;1659096;85;21194;-61
2022/10/22 05:09:17;;;;;;;15.05;6.83;;;;;;;4.32;79.44;100756.96;1662655;85;21202;-61
2022/10/22 05:11:48;;;;;;;18.70;8.15;;;;;;;4.33;79.24;100751.39;1660168;85;21171;-60
2022/10/22 05:14:20;;;;;;;16.32;7.60;;;;;;;4.35;79.03;100741.74;1679118;85;21596;-62
2022/10/22 05:16:51;;;;;;;15.50;7.62;;;;;;;4.38;78.77;100746.88;1652327;85;21212;-61
2022/10/22 05:19:28;;;;;;;13.48;7.60;;;;;;;4.43;78.52;100743.20;1669225;85;21161;-61
2022/10/22 05:22:01;;;;;;;13.32;5.72;;;;;;;4.46;78.14;100740.20;1662387;85;21150;-60
2022/10/22 05:24:31;;;;;;;14.85;7.25;;;;;;;4.50;77.95;100742.95;1660894;85;21238;-61
2022/10/22 05:27:01;;;;;;;12.35;6.42;;;;;;;4.52;77.66;100734.16;1659552;85;21144;-62
2022/10/22 05:29:31;;;;;;;14.00;7.00;;;;;;;4.53;77.33;100742.66;1656005;85;21187;-60
2022/10/22 05:32:01;;;;;;;13.50;6.90;;;;;;;4.58;77.17;100770.23;1652841;85;21176;-61
2022/10/22 05:34:32;;;;;;;15.88;7.47;;;;;;;4.61;76.93;100769.93;1651139;86;21172;-60
2022/10/22 05:37:03;;;;;;;16.52;7.83;;;;;;;4.62;76.80;100759.42;1660258;86;21266;-61
2022/10/22 05:39:35;;;;;;;16.90;7.33;;;;;;;4.63;76.72;100743.49;1658368;85;21591;-62
2022/10/22 05:42:04;;;;;;;15.38;8.70;;;;;;;4.65;76.58;100755.05;1652916;86;21145;-60
2022/10/22 05:44:33;;;;;;;16.27;7.65;;;;;;;4.65;76.42;100753.70;1658123;86;21179;-61
2022/10/22 05:47:03;;;;;;;18.80;8.80;;;;;;;4.65;76.35;100757.77;1648056;86;21700;-61
2022/10/22 05:49:33;;;;;;;16.12;8.13;;;;;;;4.68;76.30;100764.75;1655201;85;21447;-60
2022/10/22 05:52:04;;;;;;;15.88;7.80;;;;;;;4.70;76.27;100761.38;1647814;86;21192;-61
2022/10/22 05:54:34;;;;;;;18.55;8.40;;;;;;;4.74;76.21;100765.00;1655061;86;21569;-60
2022/10/22 05:57:03;;;;;;;16.42;8.58;;;;;;;4.79;76.15;100764.55;1650207;85;21188;-61
2022/10/22 05:59:32;;;;;;;17.55;8.10;;;;;;;4.82;76.04;100762.89;1648171;85;21449;-61
2022/10/22 06:02:02;;;;;;;16.35;8.48;;;;;;;4.89;75.98;100765.84;1654364;85;21244;-61
2022/10/22 06:04:32;;;;;;;14.05;7.87;;;;;;;4.93;75.60;100763.17;1654652;85;21560;-60
2022/10/22 06:07:01;;;;;;;18.37;7.97;;;;;;;4.97;75.50;100761.87;1665261;85;21207;-60
2022/10/22 06:09:34;;;;;;;14.45;6.28;;;;;;;5.02;75.21;100751.40;1659240;85;21126;-62
2022/10/22 06:12:09;;;;;;;16.50;7.40;;;;;;;5.08;74.78;100753.50;1656358;85;21625;-60
2022/10/22 06:14:39;;;;;;;14.20;7.40;;;;;;;5.15;74.29;100746.44;1649896;85;21124;-60
2022/10/22 06:17:12;;;;;;;12.68;7.15;;;;;;;5.23;74.03;100750.63;1604183;87;21153;-59
2022/10/22 06:19:43;;;;;;;14.53;7.00;;;;;;;5.31;73.78;100752.07;1602925;87;21148;-61
2022/10/22 06:22:13;;;;;;;14.38;7.33;;;;;;;5.38;73.40;100757.23;1605649;88;21169;-61
2022/10/22 06:24:43;;;;;;;14.73;7.12;;;;;;;5.46;73.13;100751.52;1610571;87;21689;-60
2022/10/22 06:27:14;;;;;;;14.95;6.50;;;;;;;5.53;72.89;100758.03;1607585;86;21128;-61
2022/10/22 06:29:45;;;;;;;15.68;6.72;;;;;;;5.56;72.30;100754.50;1616959;87;21211;-59
2022/10/22 06:32:14;;;;;;;14.00;7.47;;;;;;;5.58;71.93;100758.42;1606984;88;21232;-61
2022/10/22 06:34:47;;;;;;;16.25;7.03;;;;;;;5.60;71.78;100759.12;1628311;85;21249;-61
2022/10/22 06:37:16;;;;;;;17.30;7.17;;;;;;;5.61;71.62;100747.23;1646160;85;21211;-61
2022/10/22 06:39:45;;;;;;;16.70;6.40;;;;;;;5.63;71.46;100751.50;1657611;84;21235;-60
2022/10/22 06:42:15;;;;;;;17.05;6.90;;;;;;;5.68;71.27;100748.31;1657014;85;21624;-60
2022/10/22 06:44:45;;;;;;;14.87;6.45;;;;;;;5.73;71.12;100746.83;1651702;85;21222;-60
2022/10/22 06:47:14;;;;;;;13.95;6.62;;;;;;;5.77;70.91;100741.92;1651386;85;21645;-60
2022/10/22 06:49:45;;;;;;;15.53;7.12;;;;;;;5.83;70.80;100737.72;1597833;88;21217;-61
2022/10/22 06:52:16;;;;;;;16.23;7.22;;;;;;;5.87;70.48;100733.70;1602926;89;21154;-61
2022/10/22 06:54:45;;;;;;;15.40;6.28;;;;;;;5.94;70.26;100742.45;1600059;87;21241;-61
2022/10/22 06:57:15;;;;;;;18.32;6.33;;;;;;;6.00;69.97;100737.73;1602713;87;21208;-60
2022/10/22 06:59:46;;;;;;;15.23;6.15;;;;;;;6.09;69.70;100735.06;1597773;88;21150;-62
2022/10/22 07:02:16;;;;;;;16.77;6.17;;;;;;;6.18;69.47;100734.10;1597383;88;21616;-60
2022/10/22 07:04:46;;;;;;;17.80;6.62;;;;;;;6.26;69.09;100731.42;1595788;89;21193;-61
2022/10/22 07:07:15;;;;;;;12.80;6.35;;;;;;;6.34;68.74;100733.69;1620871;86;21214;-60
2022/10/22 07:09:46;;;;;;;14.65;6.17;;;;;;;6.43;68.29;100739.16;1654122;85;21590;-60
2022/10/22 07:12:16;;;;;;;12.82;5.67;;;;;;;6.50;68.02;100729.33;1654881;85;21238;-61
2022/10/22 07:14:48;;;;;;;14.00;6.10;;;;;;;6.57;67.46;100722.25;1661921;84;21145;-61
2022/10/22 07:17:19;;;;;;;11.48;5.85;;;;;;;6.63;67.28;100721.08;1635129;86;21279;-61
2022/10/22 07:19:49;;;;;;;15.68;5.72;;;;;;;6.71;67.03;100724.85;1652155;85;21149;-62
2022/10/22 07:22:21;;;;;;;11.65;5.85;;;;;;;6.75;66.72;100724.36;1657453;85;21177;-60
2022/10/22 07:24:50;;;;;;;13.75;5.92;;;;;;;6.79;66.42;100719.44;1662354;84;21185;-61
2022/10/22 07:27:19;;;;;;;13.32;5.83;;;;;;;6.84;66.37;100715.19;1660613;85;21172;-61
2022/10/22 07:29:49;;;;;;;10.80;5.55;;;;;;;6.90;66.14;100722.70;1657852;85;21228;-60
2022/10/22 07:35:00;;;;;;;12.58;6.03;;;;;;;7.00;65.80;100717.11;1762695;79;21171;-62
2022/10/22 07:37:31;;;;;;;11.55;5.87;;;;;;;7.08;65.81;100708.09;1766641;79;21149;-61
2022/10/22 07:40:01;;;;;;;11.73;6.45;;;;;;;7.16;65.71;100701.33;1766726;80;21099;-60
2022/10/22 07:42:32;;;;;;;15.72;5.78;;;;;;;7.22;65.48;100704.74;1762988;79;21162;-62
2022/10/22 07:45:02;;;;;;;12.00;6.17;;;;;;;7.26;65.33;100701.51;1761091;80;21133;-61
2022/10/22 07:47:33;;;;;;;13.65;6.22;;;;;;;7.30;65.29;100704.75;1757470;79;21218;-61
2022/10/22 07:50:05;;;;;;;14.80;6.08;;;;;;;7.36;65.30;100693.17;1762169;79;21161;-61
2022/10/22 07:52:34;;;;;;;10.38;5.55;;;;;;;7.39;65.23;100697.43;1759331;79;21189;-64
2022/10/22 07:55:06;;;;;;;12.78;5.50;;;;;;;7.41;65.11;100694.87;1769655;79;21148;-61
2022/10/22 07:57:37;;;;;;;14.23;5.78;;;;;;;7.43;65.19;100685.16;1798442;79;21154;-60
2022/10/22 08:00:08;;;;;;;11.97;5.70;;;;;;;7.49;65.27;100692.66;1760874;79;21081;-62
2022/10/22 08:02:39;;;;;;;11.78;5.87;;;;;;;7.56;65.50;100700.49;1789254;78;21154;-62
2022/10/22 08:05:09;;;;;;;14.47;6.33;;;;;;;7.62;65.41;100703.90;1804707;79;21115;-60
2022/10/22 08:07:38;;;;;;;14.43;6.15;;;;;;;7.68;65.27;100703.73;1807179;78;21134;-62
2022/10/22 08:10:08;;;;;;;12.33;5.95;;;;;;;7.74;65.30;100701.67;1761263;80;21571;-62
2022/10/22 08:12:37;;;;;;;12.50;5.80;;;;;;;7.79;65.20;100700.13;1728626;80;21123;-61
2022/10/22 08:15:09;;;;;;;10.65;5.50;;;;;;;7.83;65.15;100694.70;1731476;82;21555;-62
2022/10/22 08:17:38;;;;;;;12.58;5.30;;;;;;;7.88;64.91;100701.00;1796366;79;21602;-63
2022/10/22 08:20:10;;;;;;;8.70;5.17;;;;;;;7.89;64.89;100691.28;1774408;78;21149;-62
2022/10/22 08:22:38;;;;;;;9.85;5.35;;;;;;;7.92;64.76;100699.13;1790569;79;21172;-63
2022/10/22 08:25:09;;;;;;;10.25;4.70;;;;;;;7.94;65.09;100701.16;1758687;79;21137;-62
2022/10/22 08:27:37;;;;;;;10.05;5.03;;;;;;;8.00;64.70;100696.04;1771970;79;21113;-63
2022/10/22 08:30:08;;;;;;;12.35;4.83;;;;;;;8.04;64.42;100698.75;1761541;79;21165;-62
2022/10/22 08:32:37;;;;;;;9.35;4.97;;;;;;;8.05;64.25;100701.31;1762075;80;21142;-62
2022/10/22 08:35:08;;;;;;;13.15;5.35;;;;;;;8.07;64.06;100703.87;1756112;80;21074;-62
2022/10/22 08:37:40;;;;;;;7.70;4.80;;;;;;;8.09;64.11;100702.66;1742062;82;21557;-64
2022/10/22 08:40:11;;;;;;;9.98;4.97;;;;;;;8.11;64.00;100704.70;1700662;82;21103;-62
2022/10/22 08:43:10;;;;;;;10.63;5.05;;;;;;;8.13;63.93;100705.39;1670435;84;21326;-62
2022/10/22 08:46:00;;;;;;;11.88;4.78;;;;;;;8.16;63.86;100693.27;1706196;82;21162;-61
2022/10/22 08:48:43;;;;;;;12.25;4.75;;;;;;;8.19;63.85;100680.63;1705159;81;21212;-61
2022/10/22 08:51:16;;;;;;;9.25;4.37;;;;;;;8.23;63.84;100690.17;1728379;81;21110;-61
2022/10/22 08:54:06;;;;;;;9.35;4.95;;;;;;;8.26;63.98;100684.36;1776429;79;21209;-61
2022/10/22 08:56:37;;;;;;;8.23;4.72;;;;;;;8.27;64.00;100684.19;1760931;79;21178;-61
2022/10/22 08:59:18;;;;;;;10.65;5.37;;;;;;;8.33;64.07;100688.60;1765094;79;21068;-61
2022/10/22 09:01:52;;;;;;;10.18;4.83;;;;;;;8.35;63.92;100679.24;1765486;80;21608;-61
2022/10/22 09:04:40;;;;;;;13.43;4.78;;;;;;;8.37;63.91;100675.82;1781088;80;21458;-63
2022/10/22 09:07:09;;;;;;;10.20;5.05;;;;;;;8.41;63.86;100675.80;1752247;80;21015;-62
2022/10/22 09:09:41;;;;;;;10.20;5.20;;;;;;;8.44;63.77;100678.19;1773776;80;21063;-62
2022/10/22 09:12:12;;;;;;;13.65;5.83;;;;;;;8.43;63.78;100676.99;1781509;78;21034;-63
2022/10/22 09:14:44;;;;;;;10.58;5.17;;;;;;;8.44;63.74;100680.06;1700071;82;21036;-62
2022/10/22 09:17:40;;;;;;;13.15;5.37;;;;;;;8.43;63.87;100667.44;1670071;82;21519;-66
2022/10/22 09:20:22;;;;;;;13.85;5.55;;;;;;;8.41;64.00;100675.80;1697702;83;21076;-69
2022/10/22 09:23:21;;;;;;;11.53;5.35;;;;;;;8.40;64.06;100671.37;1742017;82;21030;-67
2022/10/22 09:25:51;;;;;;;11.55;5.40;;;;;;;8.40;64.16;100672.73;1693136;82;21016;-66
2022/10/22 09:28:21;;;;;;;11.15;5.12;;;;;;;8.39;64.49;100651.07;1685027;83;21071;-66
2022/10/22 09:30:51;;;;;;;10.50;4.70;;;;;;;8.39;64.49;100638.78;1741775;81;21033;-64
2022/10/22 09:33:27;;;;;;;9.75;5.10;;;;;;;8.41;64.52;100628.53;1711640;82;21104;-66
2022/10/22 09:36:02;;;;;;;10.60;5.25;;;;;;;8.39;64.51;100621.03;1716285;81;21052;-67
2022/10/22 09:38:32;;;;;;;14.78;5.30;;;;;;;8.40;64.76;100624.95;1712857;82;21028;-67
2022/10/22 09:41:03;;;;;;;12.15;5.45;;;;;;;8.42;64.82;100619.31;1760810;79;21118;-64
2022/10/22 09:43:34;;;;;;;11.25;5.45;;;;;;;8.45;64.85;100623.94;1739173;80;21034;-64
2022/10/22 09:46:06;;;;;;;12.85;5.83;;;;;;;8.47;65.00;100621.03;1732569;80;20979;-67
2022/10/22 09:48:41;;;;;;;10.08;5.55;;;;;;;8.51;65.16;100621.86;1677340;85;21176;-65
2022/10/22 09:51:22;;;;;;;12.10;5.35;;;;;;;8.53;65.07;100621.68;1648307;84;21054;-66
2022/10/22 09:54:00;;;;;;;13.48;5.50;;;;;;;8.54;65.06;100605.63;1676825;84;21454;-65
2022/10/22 09:56:36;;;;;;;9.33;5.08;;;;;;;8.54;65.10;100620.13;1683564;84;21066;-65
2022/10/22 09:59:10;;;;;;;8.28;4.78;;;;;;;8.55;65.20;100619.62;1664078;85;21075;-66
2022/10/22 10:01:40;;;;;;;9.75;4.92;;;;;;;8.54;65.21;100609.72;1689057;84;21040;-67
2022/10/22 10:04:12;;;;;;;14.18;4.97;;;;;;;8.53;65.34;100610.75;1716330;83;21187;-64
2022/10/22 10:06:43;;;;;;;11.60;4.90;;;;;;;8.52;65.47;100613.16;1721674;80;21099;-66
2022/10/22 10:09:18;;;;;;;19.27;5.72;;;;;;;8.54;65.66;100608.36;1797989;79;21093;-65
2022/10/22 10:12:09;;;;;;;12.10;5.33;;;;;;;8.56;65.85;100609.87;1764880;80;21037;-66
2022/10/22 10:14:45;;;;;;;10.45;5.20;;;;;;;8.60;66.00;100605.42;1799098;78;21016;-66
2022/10/22 10:17:45;;;;;;;9.90;5.03;;;;;;;8.65;66.10;100605.73;1796630;79;21073;-62
2022/10/22 10:20:28;;;;;;;16.95;6.90;;;;;;;8.69;66.09;100598.88;1798612;79;21057;-64
2022/10/22 10:23:19;;;;;;;14.50;6.40;;;;;;;8.74;66.26;100589.63;1796541;78;21010;-64
2022/10/22 10:26:06;;;;;;;10.48;5.97;;;;;;;8.80;66.27;100589.75;1787630;79;21084;-65
2022/10/22 10:28:56;;;;;;;12.03;5.40;;;;;;;8.87;66.20;100583.89;1764429;80;21087;-65
2022/10/22 10:32:20;;;;;;;10.95;5.05;;;;;;;8.94;66.13;100586.74;1758806;79;21740;-64
2022/10/22 10:35:26;;;;;;;12.82;5.47;;;;;;;9.00;66.11;100590.63;1760330;79;21010;-62
2022/10/22 10:38:28;;;;;;;9.03;5.17;;;;;;;9.08;66.19;100598.76;1760824;80;21023;-64
2022/10/22 10:41:28;;;;;;;11.35;4.70;;;;;;;9.17;66.11;100588.98;1759636;78;21557;-62
2022/10/22 10:44:29;;;;;;;12.58;5.20;;;;;;;9.20;66.08;100574.09;1767305;79;21083;-64
2022/10/22 10:47:30;;;;;;;9.13;4.78;;;;;;;9.24;66.12;100560.89;1798011;79;21022;-62
2022/10/22 10:50:36;;;;;;;9.23;4.85;;;;;;;9.29;66.70;100567.51;1794900;79;21061;-62
2022/10/22 10:53:36;;;;;;;9.30;5.05;;;;;;;9.38;66.64;100589.64;1798248;79;21045;-64
2022/10/22 10:56:47;;;;;;;12.95;5.15;;;;;;;9.42;66.33;100599.17;1787647;79;21021;-65
2022/10/22 10:59:53;;;;;;;9.75;5.20;;;;;;;9.44;66.15;100596.25;1793189;78;21061;-63
2022/10/22 11:03:11;;;;;;;9.65;5.17;;;;;;;9.46;66.18;100597.77;1805552;78;21479;-63
2022/10/22 11:06:09;;;;;;;10.78;4.75;;;;;;;9.47;66.21;100596.73;1667223;84;21061;-64
2022/10/22 11:08:44;;;;;;;11.57;5.17;;;;;;;9.49;66.16;100577.39;1742592;81;21027;-66
2022/10/22 11:11:24;;;;;;;11.20;6.20;;;;;;;9.47;66.23;100566.64;1700933;82;21047;-63
2022/10/22 11:14:03;;;;;;;11.60;5.37;;;;;;;9.48;66.44;100560.13;1705640;83;21028;-65
2022/10/22 11:17:00;;;;;;;10.93;5.67;;;;;;;9.49;66.58;100558.25;1704151;82;21459;-63
2022/10/22 11:19:50;;;;;;;11.12;5.58;;;;;;;9.51;66.67;100559.77;1711125;82;21046;-64
2022/10/22 11:22:33;;;;;;;10.82;5.10;;;;;;;9.54;66.74;100548.45;1700401;82;21463;-65
2022/10/22 11:25:17;;;;;;;14.85;5.60;;;;;;;9.59;66.72;100551.98;1683007;83;21047;-67
2022/10/22 11:27:59;;;;;;;9.98;5.47;;;;;;;9.63;66.81;100549.20;1710164;82;21530;-64
2022/10/22 11:30:36;;;;;;;12.85;5.67;;;;;;;9.67;66.72;100552.41;1678128;83;21075;-63
2022/10/22 11:33:11;;;;;;;12.13;5.40;;;;;;;9.70;66.79;100549.30;1736337;80;21045;-63
2022/10/22 11:35:43;;;;;;;12.53;5.28;;;;;;;9.75;66.78;100552.32;1733154;80;21470;-63
2022/10/22 11:38:19;;;;;;;13.50;5.30;;;;;;;9.80;66.73;100550.75;1702345;81;21046;-65
2022/10/22 11:41:15;;;;;;;14.05;5.70;;;;;;;9.85;66.73;100534.61;1732663;81;21485;-64
2022/10/22 11:43:57;;;;;;;9.63;5.20;;;;;;;9.91;66.76;100514.36;1731348;80;21058;-63
2022/10/22 11:46:40;;;;;;;10.88;5.87;;;;;;;9.97;66.66;100506.75;1768516;79;21091;-63
2022/10/22 11:49:17;;;;;;;13.25;5.97;;;;;;;10.02;66.90;100497.45;1759594;79;21003;-65
2022/10/22 11:51:46;;;;;;;12.78;5.65;;;;;;;10.08;66.58;100498.05;1763263;79;21088;-64
2022/10/22 11:54:42;;;;;;;12.30;6.00;;;;;;;10.11;66.52;100493.55;1741048;81;21516;-67
2022/10/22 11:57:23;;;;;;;15.10;6.62;;;;;;;10.14;66.45;100503.60;1721394;79;21151;-64
2022/10/22 11:59:58;;;;;;;15.30;6.25;;;;;;;10.17;66.40;100497.73;1763304;80;21059;-65
2022/10/22 12:02:44;;;;;;;11.38;5.45;;;;;;;10.21;66.38;100491.91;1646746;85;21188;-67
2022/10/22 12:05:27;;;;;;;25.20;6.25;;;;;;;10.24;66.29;100485.53;1694149;83;21083;-63